sensor_id;sensor_type;location;lat;lon;timestamp;temperature;humidity
37322;DHT22;23697;48.684;9.032;2022-08-02T00:00:00;18.20;88.30
37322;DHT22;23697;48.684;9.032;2022-08-02T00:02:27;18.20;88.30
37322;DHT22;23697;48.684;9.032;2022-08-02T00:04:54;18.20;88.40
37322;DHT22;23697;48.684;9.032;2022-08-02T00:07:22;18.20;88.30
37322;DHT22;23697;48.684;9.032;2022-08-02T00:09:49;18.10;88.30
37322;DHT22;23697;48.684;9.032;2022-08-02T00:12:16;18.10;88.50
37322;DHT22;23697;48.684;9.032;2022-08-02T00:14:43;18.10;88.50
37322;DHT22;23697;48.684;9.032;2022-08-02T00:17:10;18.10;88.50
37322;DHT22;23697;48.684;9.032;2022-08-02T00:19:36;18.10;88.40
37322;DHT22;23697;48.684;9.032;2022-08-02T00:22:03;18.10;88.50
37322;DHT22;23697;48.684;9.032;2022-08-02T00:24:32;18.10;88.50
37322;DHT22;23697;48.684;9.032;2022-08-02T00:26:58;18.10;88.40
37322;DHT22;23697;48.684;9.032;2022-08-02T00:29:28;18.10;88.50
37322;DHT22;23697;48.684;9.032;2022-08-02T00:31:55;18.10;88.40
37322;DHT22;23697;48.684;9.032;2022-08-02T00:34:22;18.10;88.40
37322;DHT22;23697;48.684;9.032;2022-08-02T00:36:49;18.10;88.30
37322;DHT22;23697;48.684;9.032;2022-08-02T00:39:18;18.10;88.30
37322;DHT22;23697;48.684;9.032;2022-08-02T00:41:48;18.00;88.20
37322;DHT22;23697;48.684;9.032;2022-08-02T00:44:17;18.00;88.30
37322;DHT22;23697;48.684;9.032;2022-08-02T00:46:45;17.90;88.20
37322;DHT22;23697;48.684;9.032;2022-08-02T00:49:13;17.90;88.20
37322;DHT22;23697;48.684;9.032;2022-08-02T00:51:41;17.90;88.10
37322;DHT22;23697;48.684;9.032;2022-08-02T00:54:08;17.90;88.20
37322;DHT22;23697;48.684;9.032;2022-08-02T00:56:35;17.80;88.20
37322;DHT22;23697;48.684;9.032;2022-08-02T00:59:04;17.80;88.20
37322;DHT22;23697;48.684;9.032;2022-08-02T01:01:31;17.70;88.10
37322;DHT22;23697;48.684;9.032;2022-08-02T01:04:05;17.70;88.00
37322;DHT22;23697;48.684;9.032;2022-08-02T01:06:32;17.70;88.00
37322;DHT22;23697;48.684;9.032;2022-08-02T01:08:59;17.60;87.90
37322;DHT22;23697;48.684;9.032;2022-08-02T01:11:26;17.60;87.80
37322;DHT22;23697;48.684;9.032;2022-08-02T01:13:56;17.60;87.90
37322;DHT22;23697;48.684;9.032;2022-08-02T01:16:27;17.60;87.90
37322;DHT22;23697;48.684;9.032;2022-08-02T01:19:05;17.60;88.00
37322;DHT22;23697;48.684;9.032;2022-08-02T01:24:34;17.60;87.90
37322;DHT22;23697;48.684;9.032;2022-08-02T01:27:10;17.50;88.00
37322;DHT22;23697;48.684;9.032;2022-08-02T01:29:48;17.50;88.00
37322;DHT22;23697;48.684;9.032;2022-08-02T01:32:19;17.50;88.00
37322;DHT22;23697;48.684;9.032;2022-08-02T01:34:50;17.50;88.00
37322;DHT22;23697;48.684;9.032;2022-08-02T01:37:23;17.40;88.00
37322;DHT22;23697;48.684;9.032;2022-08-02T01:39:56;17.40;88.00
37322;DHT22;23697;48.684;9.032;2022-08-02T01:42:26;17.40;88.10
37322;DHT22;23697;48.684;9.032;2022-08-02T01:44:56;17.40;88.20
37322;DHT22;23697;48.684;9.032;2022-08-02T01:47:29;17.40;88.20
37322;DHT22;23697;48.684;9.032;2022-08-02T01:49:57;17.40;88.20
37322;DHT22;23697;48.684;9.032;2022-08-02T01:52:28;17.40;88.20
37322;DHT22;23697;48.684;9.032;2022-08-02T01:54:59;17.40;88.10
37322;DHT22;23697;48.684;9.032;2022-08-02T01:57:29;17.40;88.00
37322;DHT22;23697;48.684;9.032;2022-08-02T01:59:59;17.40;88.00
37322;DHT22;23697;48.684;9.032;2022-08-02T02:02:28;17.30;88.10
37322;DHT22;23697;48.684;9.032;2022-08-02T02:04:57;17.30;88.10
37322;DHT22;23697;48.684;9.032;2022-08-02T02:07:25;17.30;88.10
37322;DHT22;23697;48.684;9.032;2022-08-02T02:09:53;17.30;88.10
37322;DHT22;23697;48.684;9.032;2022-08-02T02:12:21;17.30;88.10
37322;DHT22;23697;48.684;9.032;2022-08-02T02:14:50;17.30;88.10
37322;DHT22;23697;48.684;9.032;2022-08-02T02:17:26;17.20;88.10
37322;DHT22;23697;48.684;9.032;2022-08-02T02:19:54;17.20;88.10
37322;DHT22;23697;48.684;9.032;2022-08-02T02:22:23;17.20;88.10
37322;DHT22;23697;48.684;9.032;2022-08-02T02:24:50;17.20;88.00
37322;DHT22;23697;48.684;9.032;2022-08-02T02:27:18;17.20;88.00
37322;DHT22;23697;48.684;9.032;2022-08-02T02:29:49;17.10;88.00
37322;DHT22;23697;48.684;9.032;2022-08-02T02:32:17;17.10;88.10
37322;DHT22;23697;48.684;9.032;2022-08-02T02:34:47;17.10;88.10
37322;DHT22;23697;48.684;9.032;2022-08-02T02:37:19;17.10;88.00
37322;DHT22;23697;48.684;9.032;2022-08-02T02:39:49;17.10;88.10
37322;DHT22;23697;48.684;9.032;2022-08-02T02:42:18;17.10;88.20
37322;DHT22;23697;48.684;9.032;2022-08-02T02:44:47;17.00;88.10
37322;DHT22;23697;48.684;9.032;2022-08-02T02:47:15;17.00;88.20
37322;DHT22;23697;48.684;9.032;2022-08-02T02:49:46;17.00;88.20
37322;DHT22;23697;48.684;9.032;2022-08-02T02:52:15;17.00;88.10
37322;DHT22;23697;48.684;9.032;2022-08-02T02:54:43;17.00;88.10
37322;DHT22;23697;48.684;9.032;2022-08-02T02:57:11;17.00;88.10
37322;DHT22;23697;48.684;9.032;2022-08-02T02:59:39;16.90;88.00
37322;DHT22;23697;48.684;9.032;2022-08-02T03:02:06;16.80;88.00
37322;DHT22;23697;48.684;9.032;2022-08-02T03:04:32;16.80;88.10
37322;DHT22;23697;48.684;9.032;2022-08-02T03:07:02;16.80;88.20
37322;DHT22;23697;48.684;9.032;2022-08-02T03:09:29;16.70;88.20
37322;DHT22;23697;48.684;9.032;2022-08-02T03:11:56;16.60;88.30
37322;DHT22;23697;48.684;9.032;2022-08-02T03:14:23;16.60;88.30
37322;DHT22;23697;48.684;9.032;2022-08-02T03:16:53;16.60;88.30
37322;DHT22;23697;48.684;9.032;2022-08-02T03:19:21;16.60;88.30
37322;DHT22;23697;48.684;9.032;2022-08-02T03:21:49;16.50;88.30
37322;DHT22;23697;48.684;9.032;2022-08-02T03:24:17;16.60;88.40
37322;DHT22;23697;48.684;9.032;2022-08-02T03:26:44;16.50;88.30
37322;DHT22;23697;48.684;9.032;2022-08-02T03:29:11;16.50;88.30
37322;DHT22;23697;48.684;9.032;2022-08-02T03:31:40;16.50;88.30
37322;DHT22;23697;48.684;9.032;2022-08-02T03:34:08;16.50;88.40
37322;DHT22;23697;48.684;9.032;2022-08-02T03:36:36;16.40;88.50
37322;DHT22;23697;48.684;9.032;2022-08-02T03:39:03;16.40;88.40
37322;DHT22;23697;48.684;9.032;2022-08-02T03:41:33;16.40;88.40
37322;DHT22;23697;48.684;9.032;2022-08-02T03:44:02;16.30;88.40
37322;DHT22;23697;48.684;9.032;2022-08-02T03:46:30;16.20;88.40
37322;DHT22;23697;48.684;9.032;2022-08-02T03:48:58;16.20;88.40
37322;DHT22;23697;48.684;9.032;2022-08-02T03:51:26;16.20;88.50
37322;DHT22;23697;48.684;9.032;2022-08-02T03:53:53;16.20;88.60
37322;DHT22;23697;48.684;9.032;2022-08-02T03:56:21;16.30;88.60
37322;DHT22;23697;48.684;9.032;2022-08-02T03:58:51;16.30;88.60
37322;DHT22;23697;48.684;9.032;2022-08-02T04:01:30;16.30;88.50
37322;DHT22;23697;48.684;9.032;2022-08-02T04:03:59;16.30;88.50
37322;DHT22;23697;48.684;9.032;2022-08-02T04:06:26;16.30;88.70
37322;DHT22;23697;48.684;9.032;2022-08-02T04:08:53;16.30;88.70
37322;DHT22;23697;48.684;9.032;2022-08-02T04:11:20;16.20;88.60
37322;DHT22;23697;48.684;9.032;2022-08-02T04:13:59;16.30;88.60
37322;DHT22;23697;48.684;9.032;2022-08-02T04:16:33;16.30;88.50
37322;DHT22;23697;48.684;9.032;2022-08-02T04:19:05;16.20;88.60
37322;DHT22;23697;48.684;9.032;2022-08-02T04:21:36;16.20;88.70
37322;DHT22;23697;48.684;9.032;2022-08-02T04:24:05;16.30;88.60
37322;DHT22;23697;48.684;9.032;2022-08-02T04:26:34;16.30;88.60
37322;DHT22;23697;48.684;9.032;2022-08-02T04:29:04;16.20;88.60
37322;DHT22;23697;48.684;9.032;2022-08-02T04:31:32;16.30;88.70
37322;DHT22;23697;48.684;9.032;2022-08-02T04:33:59;16.30;88.70
37322;DHT22;23697;48.684;9.032;2022-08-02T04:36:26;16.30;88.70
37322;DHT22;23697;48.684;9.032;2022-08-02T04:38:54;16.40;88.60
37322;DHT22;23697;48.684;9.032;2022-08-02T04:41:21;16.30;88.60
37322;DHT22;23697;48.684;9.032;2022-08-02T04:43:48;16.40;88.60
37322;DHT22;23697;48.684;9.032;2022-08-02T04:46:16;16.30;88.60
37322;DHT22;23697;48.684;9.032;2022-08-02T04:48:43;16.40;88.80
37322;DHT22;23697;48.684;9.032;2022-08-02T04:51:10;16.40;88.70
37322;DHT22;23697;48.684;9.032;2022-08-02T04:53:37;16.30;88.70
37322;DHT22;23697;48.684;9.032;2022-08-02T04:56:04;16.30;88.70
37322;DHT22;23697;48.684;9.032;2022-08-02T04:58:31;16.30;88.80
37322;DHT22;23697;48.684;9.032;2022-08-02T05:00:57;16.40;88.80
37322;DHT22;23697;48.684;9.032;2022-08-02T05:03:26;16.50;88.80
37322;DHT22;23697;48.684;9.032;2022-08-02T05:05:53;16.60;88.80
37322;DHT22;23697;48.684;9.032;2022-08-02T05:08:19;16.60;88.80
37322;DHT22;23697;48.684;9.032;2022-08-02T05:10:46;16.70;88.80
37322;DHT22;23697;48.684;9.032;2022-08-02T05:13:13;16.80;88.80
37322;DHT22;23697;48.684;9.032;2022-08-02T05:15:40;16.90;88.80
37322;DHT22;23697;48.684;9.032;2022-08-02T05:18:07;17.00;88.80
37322;DHT22;23697;48.684;9.032;2022-08-02T05:20:35;17.10;88.70
37322;DHT22;23697;48.684;9.032;2022-08-02T05:23:02;17.10;88.60
37322;DHT22;23697;48.684;9.032;2022-08-02T05:25:29;17.20;88.70
37322;DHT22;23697;48.684;9.032;2022-08-02T05:27:56;17.20;88.70
37322;DHT22;23697;48.684;9.032;2022-08-02T05:30:23;17.30;88.70
37322;DHT22;23697;48.684;9.032;2022-08-02T05:32:50;17.30;88.60
37322;DHT22;23697;48.684;9.032;2022-08-02T05:35:19;17.40;88.60
37322;DHT22;23697;48.684;9.032;2022-08-02T05:37:49;17.50;88.60
37322;DHT22;23697;48.684;9.032;2022-08-02T05:40:17;17.50;88.50
37322;DHT22;23697;48.684;9.032;2022-08-02T05:42:44;17.60;88.50
37322;DHT22;23697;48.684;9.032;2022-08-02T05:45:11;17.60;88.50
37322;DHT22;23697;48.684;9.032;2022-08-02T05:47:39;17.60;88.40
37322;DHT22;23697;48.684;9.032;2022-08-02T05:50:07;17.60;88.30
37322;DHT22;23697;48.684;9.032;2022-08-02T05:52:43;17.50;88.20
37322;DHT22;23697;48.684;9.032;2022-08-02T05:55:15;17.60;88.10
37322;DHT22;23697;48.684;9.032;2022-08-02T05:57:49;17.50;88.20
37322;DHT22;23697;48.684;9.032;2022-08-02T06:00:20;17.50;88.20
37322;DHT22;23697;48.684;9.032;2022-08-02T06:03:14;17.60;88.20
37322;DHT22;23697;48.684;9.032;2022-08-02T06:05:50;17.60;88.20
37322;DHT22;23697;48.684;9.032;2022-08-02T06:08:20;17.60;88.30
37322;DHT22;23697;48.684;9.032;2022-08-02T06:10:51;17.60;88.30
37322;DHT22;23697;48.684;9.032;2022-08-02T06:13:21;17.70;88.30
37322;DHT22;23697;48.684;9.032;2022-08-02T06:15:50;17.80;88.40
37322;DHT22;23697;48.684;9.032;2022-08-02T06:18:20;17.90;88.30
37322;DHT22;23697;48.684;9.032;2022-08-02T06:20:49;18.00;88.10
37322;DHT22;23697;48.684;9.032;2022-08-02T06:23:16;18.10;88.00
37322;DHT22;23697;48.684;9.032;2022-08-02T06:25:50;18.20;87.90
37322;DHT22;23697;48.684;9.032;2022-08-02T06:28:19;18.30;87.80
37322;DHT22;23697;48.684;9.032;2022-08-02T06:30:46;18.40;87.70
37322;DHT22;23697;48.684;9.032;2022-08-02T06:33:13;18.40;87.50
37322;DHT22;23697;48.684;9.032;2022-08-02T06:35:44;18.50;87.60
37322;DHT22;23697;48.684;9.032;2022-08-02T06:38:16;18.60;87.60
37322;DHT22;23697;48.684;9.032;2022-08-02T06:40:48;18.60;87.40
37322;DHT22;23697;48.684;9.032;2022-08-02T06:43:24;18.70;87.30
37322;DHT22;23697;48.684;9.032;2022-08-02T06:45:52;18.70;86.80
37322;DHT22;23697;48.684;9.032;2022-08-02T06:48:18;18.90;86.70
37322;DHT22;23697;48.684;9.032;2022-08-02T06:50:45;19.00;86.80
37322;DHT22;23697;48.684;9.032;2022-08-02T06:53:12;19.10;86.20
37322;DHT22;23697;48.684;9.032;2022-08-02T06:55:39;19.10;86.00
37322;DHT22;23697;48.684;9.032;2022-08-02T06:58:06;19.20;85.70
37322;DHT22;23697;48.684;9.032;2022-08-02T07:00:34;19.30;85.90
37322;DHT22;23697;48.684;9.032;2022-08-02T07:03:02;19.50;86.10
37322;DHT22;23697;48.684;9.032;2022-08-02T07:05:29;19.60;86.10
37322;DHT22;23697;48.684;9.032;2022-08-02T07:07:56;19.70;86.10
37322;DHT22;23697;48.684;9.032;2022-08-02T07:10:23;19.90;86.00
37322;DHT22;23697;48.684;9.032;2022-08-02T07:12:50;20.10;85.20
37322;DHT22;23697;48.684;9.032;2022-08-02T07:15:17;20.10;84.20
37322;DHT22;23697;48.684;9.032;2022-08-02T07:17:45;20.10;82.40
37322;DHT22;23697;48.684;9.032;2022-08-02T07:20:12;20.20;82.40
37322;DHT22;23697;48.684;9.032;2022-08-02T07:22:39;20.40;83.30
37322;DHT22;23697;48.684;9.032;2022-08-02T07:25:07;20.50;83.80
37322;DHT22;23697;48.684;9.032;2022-08-02T07:27:34;20.70;83.30
37322;DHT22;23697;48.684;9.032;2022-08-02T07:30:02;20.80;82.90
37322;DHT22;23697;48.684;9.032;2022-08-02T07:32:30;21.10;83.00
37322;DHT22;23697;48.684;9.032;2022-08-02T07:34:59;21.30;82.60
37322;DHT22;23697;48.684;9.032;2022-08-02T07:37:29;21.40;80.90
37322;DHT22;23697;48.684;9.032;2022-08-02T07:39:56;21.60;81.20
37322;DHT22;23697;48.684;9.032;2022-08-02T07:42:24;21.80;80.90
37322;DHT22;23697;48.684;9.032;2022-08-02T07:44:51;21.90;80.00
37322;DHT22;23697;48.684;9.032;2022-08-02T07:47:18;22.00;80.00
37322;DHT22;23697;48.684;9.032;2022-08-02T07:49:45;22.00;79.70
37322;DHT22;23697;48.684;9.032;2022-08-02T07:52:13;21.90;79.00
37322;DHT22;23697;48.684;9.032;2022-08-02T07:54:40;22.10;79.80
37322;DHT22;23697;48.684;9.032;2022-08-02T07:57:07;22.20;78.90
37322;DHT22;23697;48.684;9.032;2022-08-02T07:59:34;22.30;78.10
37322;DHT22;23697;48.684;9.032;2022-08-02T08:02:00;22.50;78.90
37322;DHT22;23697;48.684;9.032;2022-08-02T08:04:27;22.50;75.70
37322;DHT22;23697;48.684;9.032;2022-08-02T08:06:55;22.60;76.10
37322;DHT22;23697;48.684;9.032;2022-08-02T08:09:23;22.50;74.40
37322;DHT22;23697;48.684;9.032;2022-08-02T08:11:50;22.40;74.10
37322;DHT22;23697;48.684;9.032;2022-08-02T08:14:17;22.40;74.30
37322;DHT22;23697;48.684;9.032;2022-08-02T08:16:43;22.60;75.40
37322;DHT22;23697;48.684;9.032;2022-08-02T08:19:10;22.60;75.30
37322;DHT22;23697;48.684;9.032;2022-08-02T08:21:37;22.60;72.90
37322;DHT22;23697;48.684;9.032;2022-08-02T08:24:04;22.70;74.00
37322;DHT22;23697;48.684;9.032;2022-08-02T08:26:32;23.00;73.50
37322;DHT22;23697;48.684;9.032;2022-08-02T08:28:59;23.10;74.50
37322;DHT22;23697;48.684;9.032;2022-08-02T08:31:26;23.50;75.60
37322;DHT22;23697;48.684;9.032;2022-08-02T08:33:54;23.70;75.30
37322;DHT22;23697;48.684;9.032;2022-08-02T08:36:21;23.90;72.90
37322;DHT22;23697;48.684;9.032;2022-08-02T08:38:48;24.10;73.20
37322;DHT22;23697;48.684;9.032;2022-08-02T08:41:15;24.10;70.50
37322;DHT22;23697;48.684;9.032;2022-08-02T08:43:44;24.20;68.70
37322;DHT22;23697;48.684;9.032;2022-08-02T08:46:17;24.30;68.80
37322;DHT22;23697;48.684;9.032;2022-08-02T08:48:47;24.30;70.00
37322;DHT22;23697;48.684;9.032;2022-08-02T08:51:20;24.50;69.80
37322;DHT22;23697;48.684;9.032;2022-08-02T08:53:48;24.70;68.80
37322;DHT22;23697;48.684;9.032;2022-08-02T08:56:15;24.70;64.30
37322;DHT22;23697;48.684;9.032;2022-08-02T08:58:45;24.80;64.80
37322;DHT22;23697;48.684;9.032;2022-08-02T09:01:13;24.90;66.80
37322;DHT22;23697;48.684;9.032;2022-08-02T09:03:41;25.10;66.80
37322;DHT22;23697;48.684;9.032;2022-08-02T09:06:08;25.10;63.60
37322;DHT22;23697;48.684;9.032;2022-08-02T09:08:35;24.90;63.10
37322;DHT22;23697;48.684;9.032;2022-08-02T09:11:11;24.80;63.90
37322;DHT22;23697;48.684;9.032;2022-08-02T09:13:50;24.50;63.00
37322;DHT22;23697;48.684;9.032;2022-08-02T09:16:27;24.50;64.30
37322;DHT22;23697;48.684;9.032;2022-08-02T09:18:54;24.60;62.90
37322;DHT22;23697;48.684;9.032;2022-08-02T09:21:21;24.70;65.90
37322;DHT22;23697;48.684;9.032;2022-08-02T09:23:51;24.80;62.40
37322;DHT22;23697;48.684;9.032;2022-08-02T09:26:21;25.00;64.30
37322;DHT22;23697;48.684;9.032;2022-08-02T09:28:51;25.40;63.70
37322;DHT22;23697;48.684;9.032;2022-08-02T09:31:24;25.70;61.40
37322;DHT22;23697;48.684;9.032;2022-08-02T09:33:54;26.10;61.90
37322;DHT22;23697;48.684;9.032;2022-08-02T09:36:22;26.40;60.90
37322;DHT22;23697;48.684;9.032;2022-08-02T09:38:54;26.60;61.30
37322;DHT22;23697;48.684;9.032;2022-08-02T09:41:22;26.80;59.50
37322;DHT22;23697;48.684;9.032;2022-08-02T09:43:52;27.00;53.60
37322;DHT22;23697;48.684;9.032;2022-08-02T09:46:21;26.70;53.40
37322;DHT22;23697;48.684;9.032;2022-08-02T09:48:50;26.60;55.50
37322;DHT22;23697;48.684;9.032;2022-08-02T09:51:18;26.70;57.00
37322;DHT22;23697;48.684;9.032;2022-08-02T09:53:47;27.00;56.50
37322;DHT22;23697;48.684;9.032;2022-08-02T09:56:15;26.90;54.80
37322;DHT22;23697;48.684;9.032;2022-08-02T09:58:42;26.60;56.00
37322;DHT22;23697;48.684;9.032;2022-08-02T10:01:11;26.20;55.60
37322;DHT22;23697;48.684;9.032;2022-08-02T10:03:53;26.10;57.50
37322;DHT22;23697;48.684;9.032;2022-08-02T10:06:20;26.40;58.20
37322;DHT22;23697;48.684;9.032;2022-08-02T10:08:48;26.60;56.20
37322;DHT22;23697;48.684;9.032;2022-08-02T10:11:16;26.90;56.30
37322;DHT22;23697;48.684;9.032;2022-08-02T10:13:43;27.20;57.60
37322;DHT22;23697;48.684;9.032;2022-08-02T10:16:14;27.60;56.20
37322;DHT22;23697;48.684;9.032;2022-08-02T10:18:41;27.70;53.10
37322;DHT22;23697;48.684;9.032;2022-08-02T10:21:12;27.60;52.50
37322;DHT22;23697;48.684;9.032;2022-08-02T10:23:42;27.40;51.20
37322;DHT22;23697;48.684;9.032;2022-08-02T10:26:13;27.60;53.70
37322;DHT22;23697;48.684;9.032;2022-08-02T10:28:42;28.00;53.90
37322;DHT22;23697;48.684;9.032;2022-08-02T10:31:14;28.10;51.20
37322;DHT22;23697;48.684;9.032;2022-08-02T10:33:43;28.10;47.00
37322;DHT22;23697;48.684;9.032;2022-08-02T10:36:12;28.00;50.60
37322;DHT22;23697;48.684;9.032;2022-08-02T10:38:40;28.10;51.10
37322;DHT22;23697;48.684;9.032;2022-08-02T10:41:07;28.40;51.80
37322;DHT22;23697;48.684;9.032;2022-08-02T10:43:46;28.60;50.90
37322;DHT22;23697;48.684;9.032;2022-08-02T10:46:30;29.00;52.50
37322;DHT22;23697;48.684;9.032;2022-08-02T10:49:09;29.00;48.00
37322;DHT22;23697;48.684;9.032;2022-08-02T10:52:05;28.80;49.70
37322;DHT22;23697;48.684;9.032;2022-08-02T10:54:35;29.00;49.20
37322;DHT22;23697;48.684;9.032;2022-08-02T10:57:12;29.20;48.00
37322;DHT22;23697;48.684;9.032;2022-08-02T10:59:39;29.30;49.00
37322;DHT22;23697;48.684;9.032;2022-08-02T11:02:08;29.40;46.50
37322;DHT22;23697;48.684;9.032;2022-08-02T11:05:00;29.60;48.70
37322;DHT22;23697;48.684;9.032;2022-08-02T11:07:34;29.80;48.40
37322;DHT22;23697;48.684;9.032;2022-08-02T11:10:29;30.10;47.50
37322;DHT22;23697;48.684;9.032;2022-08-02T11:13:11;30.10;46.40
37322;DHT22;23697;48.684;9.032;2022-08-02T11:15:57;30.00;46.50
37322;DHT22;23697;48.684;9.032;2022-08-02T11:19:04;29.50;45.40
37322;DHT22;23697;48.684;9.032;2022-08-02T11:21:32;29.60;46.70
37322;DHT22;23697;48.684;9.032;2022-08-02T11:24:24;29.10;45.40
37322;DHT22;23697;48.684;9.032;2022-08-02T11:26:53;28.70;49.10
37322;DHT22;23697;48.684;9.032;2022-08-02T11:29:20;28.60;47.50
37322;DHT22;23697;48.684;9.032;2022-08-02T11:31:47;28.50;46.80
37322;DHT22;23697;48.684;9.032;2022-08-02T11:34:16;28.50;48.30
37322;DHT22;23697;48.684;9.032;2022-08-02T11:36:47;28.40;50.20
37322;DHT22;23697;48.684;9.032;2022-08-02T11:39:16;27.90;48.00
37322;DHT22;23697;48.684;9.032;2022-08-02T11:41:48;27.50;48.70
37322;DHT22;23697;48.684;9.032;2022-08-02T11:44:15;27.20;50.30
37322;DHT22;23697;48.684;9.032;2022-08-02T11:46:42;26.90;49.40
37322;DHT22;23697;48.684;9.032;2022-08-02T11:49:14;26.80;50.10
37322;DHT22;23697;48.684;9.032;2022-08-02T11:51:57;27.10;49.90
37322;DHT22;23697;48.684;9.032;2022-08-02T11:54:27;27.20;51.80
37322;DHT22;23697;48.684;9.032;2022-08-02T11:56:54;27.00;48.90
37322;DHT22;23697;48.684;9.032;2022-08-02T11:59:36;26.90;50.00
37322;DHT22;23697;48.684;9.032;2022-08-02T12:02:03;27.20;51.50
37322;DHT22;23697;48.684;9.032;2022-08-02T12:04:31;27.80;50.90
37322;DHT22;23697;48.684;9.032;2022-08-02T12:07:00;28.10;49.90
37322;DHT22;23697;48.684;9.032;2022-08-02T12:09:28;28.40;49.30
37322;DHT22;23697;48.684;9.032;2022-08-02T12:11:55;28.60;48.10
37322;DHT22;23697;48.684;9.032;2022-08-02T12:14:24;28.70;46.60
37322;DHT22;23697;48.684;9.032;2022-08-02T12:16:51;28.80;46.80
37322;DHT22;23697;48.684;9.032;2022-08-02T12:19:36;28.80;45.60
37322;DHT22;23697;48.684;9.032;2022-08-02T12:22:13;29.10;46.20
37322;DHT22;23697;48.684;9.032;2022-08-02T12:24:43;29.60;48.30
37322;DHT22;23697;48.684;9.032;2022-08-02T12:27:26;29.80;40.20
37322;DHT22;23697;48.684;9.032;2022-08-02T12:30:05;30.00;42.90
37322;DHT22;23697;48.684;9.032;2022-08-02T12:32:33;30.10;40.10
37322;DHT22;23697;48.684;9.032;2022-08-02T12:35:08;30.10;40.10
37322;DHT22;23697;48.684;9.032;2022-08-02T12:37:39;30.10;41.60
37322;DHT22;23697;48.684;9.032;2022-08-02T12:40:20;30.10;42.00
37322;DHT22;23697;48.684;9.032;2022-08-02T12:42:48;30.10;41.60
37322;DHT22;23697;48.684;9.032;2022-08-02T12:45:16;29.90;44.30
37322;DHT22;23697;48.684;9.032;2022-08-02T12:47:47;30.20;43.40
37322;DHT22;23697;48.684;9.032;2022-08-02T12:50:17;30.40;43.40
37322;DHT22;23697;48.684;9.032;2022-08-02T12:52:46;30.40;43.60
37322;DHT22;23697;48.684;9.032;2022-08-02T12:55:15;30.00;42.60
37322;DHT22;23697;48.684;9.032;2022-08-02T12:57:54;29.60;41.00
37322;DHT22;23697;48.684;9.032;2022-08-02T13:00:25;29.60;42.90
37322;DHT22;23697;48.684;9.032;2022-08-02T13:02:52;29.30;41.60
37322;DHT22;23697;48.684;9.032;2022-08-02T13:05:19;29.30;43.70
37322;DHT22;23697;48.684;9.032;2022-08-02T13:07:48;29.40;42.40
37322;DHT22;23697;48.684;9.032;2022-08-02T13:10:15;29.40;42.60
37322;DHT22;23697;48.684;9.032;2022-08-02T13:12:42;29.30;42.60
37322;DHT22;23697;48.684;9.032;2022-08-02T13:15:09;29.30;44.40
37322;DHT22;23697;48.684;9.032;2022-08-02T13:17:36;29.50;42.60
37322;DHT22;23697;48.684;9.032;2022-08-02T13:20:03;29.60;43.30
37322;DHT22;23697;48.684;9.032;2022-08-02T13:22:31;29.70;44.50
37322;DHT22;23697;48.684;9.032;2022-08-02T13:24:59;29.60;43.40
37322;DHT22;23697;48.684;9.032;2022-08-02T13:27:26;29.60;42.90
37322;DHT22;23697;48.684;9.032;2022-08-02T13:29:55;29.80;44.20
37322;DHT22;23697;48.684;9.032;2022-08-02T13:32:22;30.10;43.70
37322;DHT22;23697;48.684;9.032;2022-08-02T13:34:50;30.40;41.70
37322;DHT22;23697;48.684;9.032;2022-08-02T13:37:17;30.20;39.60
37322;DHT22;23697;48.684;9.032;2022-08-02T13:39:44;30.00;41.10
37322;DHT22;23697;48.684;9.032;2022-08-02T13:42:12;30.10;41.80
37322;DHT22;23697;48.684;9.032;2022-08-02T13:44:39;30.30;41.00
37322;DHT22;23697;48.684;9.032;2022-08-02T13:47:06;30.20;40.40
37322;DHT22;23697;48.684;9.032;2022-08-02T13:49:36;30.10;43.10
37322;DHT22;23697;48.684;9.032;2022-08-02T13:52:03;29.80;42.90
37322;DHT22;23697;48.684;9.032;2022-08-02T13:54:30;29.70;43.40
37322;DHT22;23697;48.684;9.032;2022-08-02T13:56:57;30.10;43.20
37322;DHT22;23697;48.684;9.032;2022-08-02T13:59:25;30.50;43.50
37322;DHT22;23697;48.684;9.032;2022-08-02T14:01:52;30.60;39.70
37322;DHT22;23697;48.684;9.032;2022-08-02T14:04:19;30.20;40.70
37322;DHT22;23697;48.684;9.032;2022-08-02T14:06:46;29.60;41.00
37322;DHT22;23697;48.684;9.032;2022-08-02T14:09:13;29.20;42.90
37322;DHT22;23697;48.684;9.032;2022-08-02T14:11:40;28.70;43.10
37322;DHT22;23697;48.684;9.032;2022-08-02T14:14:06;28.40;44.30
37322;DHT22;23697;48.684;9.032;2022-08-02T14:16:35;28.10;46.00
37322;DHT22;23697;48.684;9.032;2022-08-02T14:19:02;28.30;46.50
37322;DHT22;23697;48.684;9.032;2022-08-02T14:21:29;28.60;46.10
37322;DHT22;23697;48.684;9.032;2022-08-02T14:23:56;29.00;44.30
37322;DHT22;23697;48.684;9.032;2022-08-02T14:26:23;29.20;45.40
37322;DHT22;23697;48.684;9.032;2022-08-02T14:28:50;29.50;43.40
37322;DHT22;23697;48.684;9.032;2022-08-02T14:31:17;29.80;44.60
37322;DHT22;23697;48.684;9.032;2022-08-02T14:33:45;30.20;43.20
37322;DHT22;23697;48.684;9.032;2022-08-02T14:36:12;30.50;43.00
37322;DHT22;23697;48.684;9.032;2022-08-02T14:38:39;30.60;41.70
37322;DHT22;23697;48.684;9.032;2022-08-02T14:41:06;30.60;41.10
37322;DHT22;23697;48.684;9.032;2022-08-02T14:43:32;30.60;41.90
37322;DHT22;23697;48.684;9.032;2022-08-02T14:46:17;30.60;42.80
37322;DHT22;23697;48.684;9.032;2022-08-02T14:48:45;30.60;44.00
37322;DHT22;23697;48.684;9.032;2022-08-02T14:51:12;30.80;41.20
37322;DHT22;23697;48.684;9.032;2022-08-02T14:53:39;31.00;41.30
37322;DHT22;23697;48.684;9.032;2022-08-02T14:56:06;31.10;41.70
37322;DHT22;23697;48.684;9.032;2022-08-02T14:58:33;30.80;40.40
37322;DHT22;23697;48.684;9.032;2022-08-02T15:00:59;30.70;37.60
37322;DHT22;23697;48.684;9.032;2022-08-02T15:03:26;30.80;40.40
37322;DHT22;23697;48.684;9.032;2022-08-02T15:05:55;31.00;40.20
37322;DHT22;23697;48.684;9.032;2022-08-02T15:08:21;31.20;40.40
37322;DHT22;23697;48.684;9.032;2022-08-02T15:10:48;31.20;38.30
37322;DHT22;23697;48.684;9.032;2022-08-02T15:13:17;31.20;39.90
37322;DHT22;23697;48.684;9.032;2022-08-02T15:15:44;31.10;40.30
37322;DHT22;23697;48.684;9.032;2022-08-02T15:18:11;31.00;40.00
37322;DHT22;23697;48.684;9.032;2022-08-02T15:20:38;31.10;41.70
37322;DHT22;23697;48.684;9.032;2022-08-02T15:23:09;30.90;40.30
37322;DHT22;23697;48.684;9.032;2022-08-02T15:25:36;30.50;40.50
37322;DHT22;23697;48.684;9.032;2022-08-02T15:28:03;30.10;40.00
37322;DHT22;23697;48.684;9.032;2022-08-02T15:30:31;29.70;41.60
37322;DHT22;23697;48.684;9.032;2022-08-02T15:32:58;29.50;42.20
37322;DHT22;23697;48.684;9.032;2022-08-02T15:35:25;29.40;42.40
37322;DHT22;23697;48.684;9.032;2022-08-02T15:37:52;29.20;42.80
37322;DHT22;23697;48.684;9.032;2022-08-02T15:40:21;29.00;44.10
37322;DHT22;23697;48.684;9.032;2022-08-02T15:42:48;28.90;44.40
37322;DHT22;23697;48.684;9.032;2022-08-02T15:45:15;28.70;45.30